sensor_id;sensor_type;location;lat;lon;timestamp;P1;durP1;ratioP1;P2;durP2;ratioP2
11835;SDS011;5977;51.972;7.640;2022-09-09T00:00:53;161.57;;;54.00;;
11835;SDS011;5977;51.972;7.640;2022-09-09T00:03:26;160.57;;;53.30;;
11835;SDS011;5977;51.972;7.640;2022-09-09T00:06:02;160.83;;;53.50;;
11835;SDS011;5977;51.972;7.640;2022-09-09T00:08:38;160.33;;;53.37;;
11835;SDS011;5977;51.972;7.640;2022-09-09T00:11:13;160.97;;;53.43;;
11835;SDS011;5977;51.972;7.640;2022-09-09T00:13:57;161.90;;;53.97;;
11835;SDS011;5977;51.972;7.640;2022-09-09T00:16:31;161.47;;;53.53;;
11835;SDS011;5977;51.972;7.640;2022-09-09T00:19:04;160.80;;;53.73;;
11835;SDS011;5977;51.972;7.640;2022-09-09T00:21:43;160.57;;;53.17;;
11835;SDS011;5977;51.972;7.640;2022-09-09T00:24:23;160.43;;;53.10;;
11835;SDS011;5977;51.972;7.640;2022-09-09T00:26:55;160.40;;;52.97;;
11835;SDS011;5977;51.972;7.640;2022-09-09T00:29:28;160.23;;;53.20;;
11835;SDS011;5977;51.972;7.640;2022-09-09T00:32:09;159.97;;;52.57;;
11835;SDS011;5977;51.972;7.640;2022-09-09T00:34:40;161.00;;;52.90;;
11835;SDS011;5977;51.972;7.640;2022-09-09T00:37:15;160.63;;;53.20;;
11835;SDS011;5977;51.972;7.640;2022-09-09T00:39:48;161.07;;;53.60;;
11835;SDS011;5977;51.972;7.640;2022-09-09T00:42:18;161.07;;;53.33;;
11835;SDS011;5977;51.972;7.640;2022-09-09T00:44:56;160.80;;;53.40;;
11835;SDS011;5977;51.972;7.640;2022-09-09T00:47:36;160.53;;;53.20;;
11835;SDS011;5977;51.972;7.640;2022-09-09T00:50:12;160.25;;;53.05;;
11835;SDS011;5977;51.972;7.640;2022-09-09T00:53:05;160.13;;;53.20;;
11835;SDS011;5977;51.972;7.640;2022-09-09T00:55:41;161.13;;;53.80;;
11835;SDS011;5977;51.972;7.640;2022-09-09T00:58:15;160.13;;;52.70;;
11835;SDS011;5977;51.972;7.640;2022-09-09T01:00:43;160.67;;;53.50;;
11835;SDS011;5977;51.972;7.640;2022-09-09T01:03:18;160.57;;;52.97;;
11835;SDS011;5977;51.972;7.640;2022-09-09T01:05:54;160.63;;;53.33;;
11835;SDS011;5977;51.972;7.640;2022-09-09T01:08:36;160.47;;;53.30;;
11835;SDS011;5977;51.972;7.640;2022-09-09T01:11:15;159.90;;;52.47;;
11835;SDS011;5977;51.972;7.640;2022-09-09T01:13:49;160.77;;;53.37;;
11835;SDS011;5977;51.972;7.640;2022-09-09T01:16:26;160.83;;;53.30;;
11835;SDS011;5977;51.972;7.640;2022-09-09T01:18:57;161.23;;;53.47;;
11835;SDS011;5977;51.972;7.640;2022-09-09T01:21:31;160.57;;;52.90;;
11835;SDS011;5977;51.972;7.640;2022-09-09T01:24:15;161.00;;;53.47;;
11835;SDS011;5977;51.972;7.640;2022-09-09T01:26:59;160.00;;;52.77;;
11835;SDS011;5977;51.972;7.640;2022-09-09T01:29:29;160.70;;;53.13;;
11835;SDS011;5977;51.972;7.640;2022-09-09T01:31:58;160.87;;;53.50;;
11835;SDS011;5977;51.972;7.640;2022-09-09T01:34:30;160.60;;;53.40;;
11835;SDS011;5977;51.972;7.640;2022-09-09T01:37:02;160.87;;;53.20;;
11835;SDS011;5977;51.972;7.640;2022-09-09T01:39:31;160.73;;;52.77;;
11835;SDS011;5977;51.972;7.640;2022-09-09T01:42:09;160.63;;;53.13;;
11835;SDS011;5977;51.972;7.640;2022-09-09T01:44:39;160.73;;;53.47;;
11835;SDS011;5977;51.972;7.640;2022-09-09T01:47:07;160.63;;;53.03;;
11835;SDS011;5977;51.972;7.640;2022-09-09T01:49:53;160.70;;;53.40;;
11835;SDS011;5977;51.972;7.640;2022-09-09T01:52:24;160.17;;;52.80;;
11835;SDS011;5977;51.972;7.640;2022-09-09T01:54:53;160.07;;;52.70;;
11835;SDS011;5977;51.972;7.640;2022-09-09T01:57:26;160.10;;;53.10;;
11835;SDS011;5977;51.972;7.640;2022-09-09T02:00:02;160.80;;;53.30;;
11835;SDS011;5977;51.972;7.640;2022-09-09T02:02:43;160.00;;;52.30;;
11835;SDS011;5977;51.972;7.640;2022-09-09T02:05:27;159.97;;;52.20;;
11835;SDS011;5977;51.972;7.640;2022-09-09T02:08:05;159.47;;;52.63;;
11835;SDS011;5977;51.972;7.640;2022-09-09T02:10:46;160.17;;;52.87;;
11835;SDS011;5977;51.972;7.640;2022-09-09T02:13:34;160.10;;;52.97;;
11835;SDS011;5977;51.972;7.640;2022-09-09T02:16:08;160.40;;;52.73;;
11835;SDS011;5977;51.972;7.640;2022-09-09T02:18:44;159.97;;;52.37;;
11835;SDS011;5977;51.972;7.640;2022-09-09T02:21:19;159.63;;;52.70;;
11835;SDS011;5977;51.972;7.640;2022-09-09T02:23:48;161.03;;;53.13;;
11835;SDS011;5977;51.972;7.640;2022-09-09T02:26:18;160.50;;;53.03;;
11835;SDS011;5977;51.972;7.640;2022-09-09T02:28:57;160.43;;;52.90;;
11835;SDS011;5977;51.972;7.640;2022-09-09T02:31:28;160.53;;;52.93;;
11835;SDS011;5977;51.972;7.640;2022-09-09T02:34:02;160.50;;;52.80;;
11835;SDS011;5977;51.972;7.640;2022-09-09T02:36:33;160.57;;;52.77;;
11835;SDS011;5977;51.972;7.640;2022-09-09T02:39:02;160.40;;;52.93;;
11835;SDS011;5977;51.972;7.640;2022-09-09T02:41:36;159.83;;;52.70;;
11835;SDS011;5977;51.972;7.640;2022-09-09T02:44:09;160.93;;;53.23;;
11835;SDS011;5977;51.972;7.640;2022-09-09T02:46:52;161.33;;;53.10;;
11835;SDS011;5977;51.972;7.640;2022-09-09T02:49:39;159.53;;;52.00;;
11835;SDS011;5977;51.972;7.640;2022-09-09T02:52:19;160.47;;;52.83;;
11835;SDS011;5977;51.972;7.640;2022-09-09T02:54:54;160.03;;;52.53;;
11835;SDS011;5977;51.972;7.640;2022-09-09T02:57:27;160.67;;;52.97;;
11835;SDS011;5977;51.972;7.640;2022-09-09T02:59:59;159.50;;;52.53;;
11835;SDS011;5977;51.972;7.640;2022-09-09T03:02:29;160.40;;;52.97;;
11835;SDS011;5977;51.972;7.640;2022-09-09T03:05:03;160.20;;;52.83;;
11835;SDS011;5977;51.972;7.640;2022-09-09T03:07:31;160.57;;;52.83;;
11835;SDS011;5977;51.972;7.640;2022-09-09T03:10:00;159.27;;;52.27;;
11835;SDS011;5977;51.972;7.640;2022-09-09T03:12:28;160.57;;;53.00;;
11835;SDS011;5977;51.972;7.640;2022-09-09T03:14:56;160.43;;;52.97;;
11835;SDS011;5977;51.972;7.640;2022-09-09T03:17:25;160.73;;;52.90;;
11835;SDS011;5977;51.972;7.640;2022-09-09T03:19:54;159.87;;;52.23;;
11835;SDS011;5977;51.972;7.640;2022-09-09T03:22:24;160.07;;;52.77;;
11835;SDS011;5977;51.972;7.640;2022-09-09T03:24:54;160.67;;;52.97;;
11835;SDS011;5977;51.972;7.640;2022-09-09T03:27:22;159.53;;;52.30;;
11835;SDS011;5977;51.972;7.640;2022-09-09T03:29:51;159.63;;;51.97;;
11835;SDS011;5977;51.972;7.640;2022-09-09T03:32:22;159.57;;;52.53;;
11835;SDS011;5977;51.972;7.640;2022-09-09T03:34:53;160.57;;;52.77;;
11835;SDS011;5977;51.972;7.640;2022-09-09T03:37:21;160.40;;;52.43;;
11835;SDS011;5977;51.972;7.640;2022-09-09T03:39:50;159.97;;;52.50;;
11835;SDS011;5977;51.972;7.640;2022-09-09T03:42:19;159.90;;;52.47;;
11835;SDS011;5977;51.972;7.640;2022-09-09T03:44:50;159.73;;;52.60;;
11835;SDS011;5977;51.972;7.640;2022-09-09T03:47:21;160.43;;;52.43;;
11835;SDS011;5977;51.972;7.640;2022-09-09T03:49:55;160.40;;;52.80;;
11835;SDS011;5977;51.972;7.640;2022-09-09T03:52:23;159.43;;;52.13;;
11835;SDS011;5977;51.972;7.640;2022-09-09T03:54:53;159.90;;;52.27;;
11835;SDS011;5977;51.972;7.640;2022-09-09T03:57:21;160.70;;;52.57;;
11835;SDS011;5977;51.972;7.640;2022-09-09T03:59:49;160.60;;;52.63;;
11835;SDS011;5977;51.972;7.640;2022-09-09T04:02:17;160.23;;;52.60;;
11835;SDS011;5977;51.972;7.640;2022-09-09T04:04:45;160.00;;;52.47;;
11835;SDS011;5977;51.972;7.640;2022-09-09T04:07:15;160.57;;;52.57;;
11835;SDS011;5977;51.972;7.640;2022-09-09T04:09:42;160.47;;;52.63;;
11835;SDS011;5977;51.972;7.640;2022-09-09T04:12:12;160.47;;;52.57;;
11835;SDS011;5977;51.972;7.640;2022-09-09T04:14:40;160.33;;;52.30;;
11835;SDS011;5977;51.972;7.640;2022-09-09T04:17:09;160.80;;;53.83;;
11835;SDS011;5977;51.972;7.640;2022-09-09T04:19:37;160.67;;;52.67;;
11835;SDS011;5977;51.972;7.640;2022-09-09T04:22:05;160.63;;;52.67;;
11835;SDS011;5977;51.972;7.640;2022-09-09T04:24:34;160.13;;;52.00;;
11835;SDS011;5977;51.972;7.640;2022-09-09T04:27:02;160.43;;;52.33;;
11835;SDS011;5977;51.972;7.640;2022-09-09T04:29:33;159.83;;;51.83;;
11835;SDS011;5977;51.972;7.640;2022-09-09T04:32:01;159.57;;;51.77;;
11835;SDS011;5977;51.972;7.640;2022-09-09T04:34:29;159.03;;;51.37;;
11835;SDS011;5977;51.972;7.640;2022-09-09T04:36:57;160.53;;;52.30;;
11835;SDS011;5977;51.972;7.640;2022-09-09T04:39:27;159.60;;;51.77;;
11835;SDS011;5977;51.972;7.640;2022-09-09T04:41:57;159.33;;;51.37;;
11835;SDS011;5977;51.972;7.640;2022-09-09T04:44:25;159.67;;;51.83;;
11835;SDS011;5977;51.972;7.640;2022-09-09T04:46:54;159.90;;;51.90;;
11835;SDS011;5977;51.972;7.640;2022-09-09T04:49:22;160.17;;;51.97;;
11835;SDS011;5977;51.972;7.640;2022-09-09T04:51:50;160.20;;;52.20;;
11835;SDS011;5977;51.972;7.640;2022-09-09T04:54:18;159.83;;;51.93;;
11835;SDS011;5977;51.972;7.640;2022-09-09T04:56:46;160.70;;;52.43;;
11835;SDS011;5977;51.972;7.640;2022-09-09T04:59:16;159.97;;;51.83;;
11835;SDS011;5977;51.972;7.640;2022-09-09T05:01:47;160.40;;;52.47;;
11835;SDS011;5977;51.972;7.640;2022-09-09T05:04:16;160.63;;;52.50;;
11835;SDS011;5977;51.972;7.640;2022-09-09T05:06:45;160.20;;;51.93;;
11835;SDS011;5977;51.972;7.640;2022-09-09T05:09:13;160.73;;;52.43;;
11835;SDS011;5977;51.972;7.640;2022-09-09T05:11:43;160.60;;;52.53;;
11835;SDS011;5977;51.972;7.640;2022-09-09T05:14:29;160.77;;;52.23;;
11835;SDS011;5977;51.972;7.640;2022-09-09T05:16:59;159.57;;;51.77;;
11835;SDS011;5977;51.972;7.640;2022-09-09T05:19:27;160.63;;;52.37;;
11835;SDS011;5977;51.972;7.640;2022-09-09T05:21:57;160.07;;;52.27;;
11835;SDS011;5977;51.972;7.640;2022-09-09T05:24:33;160.40;;;52.47;;
11835;SDS011;5977;51.972;7.640;2022-09-09T05:27:02;161.20;;;52.90;;
11835;SDS011;5977;51.972;7.640;2022-09-09T05:29:33;160.37;;;52.53;;
11835;SDS011;5977;51.972;7.640;2022-09-09T05:32:03;160.07;;;52.07;;
11835;SDS011;5977;51.972;7.640;2022-09-09T05:34:32;160.77;;;52.40;;
11835;SDS011;5977;51.972;7.640;2022-09-09T05:36:59;160.70;;;53.00;;
11835;SDS011;5977;51.972;7.640;2022-09-09T05:39:27;159.57;;;51.80;;
11835;SDS011;5977;51.972;7.640;2022-09-09T05:41:55;160.00;;;52.40;;
11835;SDS011;5977;51.972;7.640;2022-09-09T05:44:23;160.73;;;52.73;;
11835;SDS011;5977;51.972;7.640;2022-09-09T05:46:55;160.40;;;52.67;;
11835;SDS011;5977;51.972;7.640;2022-09-09T05:49:24;160.63;;;52.57;;
11835;SDS011;5977;51.972;7.640;2022-09-09T05:51:53;159.73;;;52.03;;
11835;SDS011;5977;51.972;7.640;2022-09-09T05:54:22;160.63;;;52.87;;
11835;SDS011;5977;51.972;7.640;2022-09-09T05:56:51;161.40;;;52.83;;
11835;SDS011;5977;51.972;7.640;2022-09-09T05:59:19;160.53;;;52.53;;
11835;SDS011;5977;51.972;7.640;2022-09-09T06:01:51;159.80;;;52.00;;
11835;SDS011;5977;51.972;7.640;2022-09-09T06:04:25;160.17;;;52.47;;
11835;SDS011;5977;51.972;7.640;2022-09-09T06:06:54;160.00;;;52.17;;
11835;SDS011;5977;51.972;7.640;2022-09-09T06:09:22;159.43;;;51.83;;
11835;SDS011;5977;51.972;7.640;2022-09-09T06:11:50;159.73;;;51.97;;
11835;SDS011;5977;51.972;7.640;2022-09-09T06:14:19;159.33;;;51.37;;
11835;SDS011;5977;51.972;7.640;2022-09-09T06:16:49;159.77;;;51.47;;
11835;SDS011;5977;51.972;7.640;2022-09-09T06:19:22;160.20;;;51.90;;
11835;SDS011;5977;51.972;7.640;2022-09-09T06:21:56;160.10;;;52.17;;
11835;SDS011;5977;51.972;7.640;2022-09-09T06:24:26;159.87;;;51.70;;
11835;SDS011;5977;51.972;7.640;2022-09-09T06:26:56;159.87;;;52.00;;
11835;SDS011;5977;51.972;7.640;2022-09-09T06:29:28;160.13;;;51.93;;
11835;SDS011;5977;51.972;7.640;2022-09-09T06:31:56;160.90;;;52.37;;
11835;SDS011;5977;51.972;7.640;2022-09-09T06:34:25;160.53;;;52.03;;
11835;SDS011;5977;51.972;7.640;2022-09-09T06:36:57;160.97;;;52.10;;
11835;SDS011;5977;51.972;7.640;2022-09-09T06:39:32;160.63;;;51.87;;
11835;SDS011;5977;51.972;7.640;2022-09-09T06:42:00;160.80;;;52.27;;
11835;SDS011;5977;51.972;7.640;2022-09-09T06:44:47;160.30;;;52.00;;
11835;SDS011;5977;51.972;7.640;2022-09-09T06:47:25;160.93;;;52.20;;
11835;SDS011;5977;51.972;7.640;2022-09-09T06:49:55;160.50;;;52.10;;
11835;SDS011;5977;51.972;7.640;2022-09-09T06:52:25;160.63;;;52.00;;
11835;SDS011;5977;51.972;7.640;2022-09-09T06:54:54;160.63;;;52.03;;
11835;SDS011;5977;51.972;7.640;2022-09-09T06:57:25;160.27;;;52.13;;
11835;SDS011;5977;51.972;7.640;2022-09-09T07:00:06;159.87;;;51.37;;
11835;SDS011;5977;51.972;7.640;2022-09-09T07:02:34;159.83;;;51.27;;
11835;SDS011;5977;51.972;7.640;2022-09-09T07:05:07;160.37;;;51.63;;
11835;SDS011;5977;51.972;7.640;2022-09-09T07:07:37;160.43;;;51.87;;
11835;SDS011;5977;51.972;7.640;2022-09-09T07:10:07;160.67;;;52.07;;
11835;SDS011;5977;51.972;7.640;2022-09-09T07:12:36;160.17;;;51.70;;
11835;SDS011;5977;51.972;7.640;2022-09-09T07:15:08;160.70;;;52.27;;
11835;SDS011;5977;51.972;7.640;2022-09-09T07:17:40;159.93;;;52.00;;
11835;SDS011;5977;51.972;7.640;2022-09-09T07:20:08;159.77;;;51.67;;
11835;SDS011;5977;51.972;7.640;2022-09-09T07:22:37;160.37;;;51.93;;
11835;SDS011;5977;51.972;7.640;2022-09-09T07:25:06;159.97;;;51.53;;
11835;SDS011;5977;51.972;7.640;2022-09-09T07:27:35;160.37;;;51.97;;
11835;SDS011;5977;51.972;7.640;2022-09-09T07:30:04;159.37;;;51.60;;
11835;SDS011;5977;51.972;7.640;2022-09-09T07:32:34;159.87;;;52.03;;
11835;SDS011;5977;51.972;7.640;2022-09-09T07:35:02;159.47;;;51.60;;
11835;SDS011;5977;51.972;7.640;2022-09-09T07:37:30;159.27;;;51.47;;
11835;SDS011;5977;51.972;7.640;2022-09-09T07:39:59;160.27;;;52.53;;
11835;SDS011;5977;51.972;7.640;2022-09-09T07:42:29;159.27;;;51.60;;
11835;SDS011;5977;51.972;7.640;2022-09-09T07:44:57;159.53;;;51.80;;
11835;SDS011;5977;51.972;7.640;2022-09-09T07:47:25;159.47;;;51.90;;
11835;SDS011;5977;51.972;7.640;2022-09-09T07:49:53;159.93;;;52.53;;
11835;SDS011;5977;51.972;7.640;2022-09-09T07:52:26;160.03;;;52.33;;
11835;SDS011;5977;51.972;7.640;2022-09-09T07:55:00;160.93;;;53.03;;
11835;SDS011;5977;51.972;7.640;2022-09-09T07:57:29;160.13;;;53.10;;
11835;SDS011;5977;51.972;7.640;2022-09-09T07:59:57;159.93;;;52.90;;
11835;SDS011;5977;51.972;7.640;2022-09-09T08:02:25;160.13;;;53.40;;
11835;SDS011;5977;51.972;7.640;2022-09-09T08:04:55;160.77;;;53.40;;
11835;SDS011;5977;51.972;7.640;2022-09-09T08:07:23;160.17;;;53.03;;
11835;SDS011;5977;51.972;7.640;2022-09-09T08:09:53;160.20;;;53.17;;
11835;SDS011;5977;51.972;7.640;2022-09-09T08:12:27;159.90;;;52.90;;
11835;SDS011;5977;51.972;7.640;2022-09-09T08:14:55;160.93;;;53.20;;
11835;SDS011;5977;51.972;7.640;2022-09-09T08:17:27;160.20;;;53.40;;
11835;SDS011;5977;51.972;7.640;2022-09-09T08:19:57;159.87;;;53.27;;
11835;SDS011;5977;51.972;7.640;2022-09-09T08:22:31;160.23;;;52.80;;
11835;SDS011;5977;51.972;7.640;2022-09-09T08:25:00;159.27;;;52.47;;
11835;SDS011;5977;51.972;7.640;2022-09-09T08:27:31;160.30;;;53.23;;
11835;SDS011;5977;51.972;7.640;2022-09-09T08:29:59;160.37;;;53.27;;
11835;SDS011;5977;51.972;7.640;2022-09-09T08:32:28;161.97;;;54.30;;
11835;SDS011;5977;51.972;7.640;2022-09-09T08:34:58;162.03;;;54.37;;
11835;SDS011;5977;51.972;7.640;2022-09-09T08:37:28;161.40;;;53.57;;
11835;SDS011;5977;51.972;7.640;2022-09-09T08:39:58;161.20;;;53.73;;
11835;SDS011;5977;51.972;7.640;2022-09-09T08:48:09;160.50;;;53.60;;
11835;SDS011;5977;51.972;7.640;2022-09-09T08:50:49;161.17;;;54.13;;
11835;SDS011;5977;51.972;7.640;2022-09-09T08:53:26;162.77;;;54.43;;
11835;SDS011;5977;51.972;7.640;2022-09-09T08:55:56;161.13;;;54.43;;
11835;SDS011;5977;51.972;7.640;2022-09-09T08:58:35;160.63;;;53.80;;
11835;SDS011;5977;51.972;7.640;2022-09-09T09:01:24;161.67;;;54.33;;
11835;SDS011;5977;51.972;7.640;2022-09-09T09:04:21;161.57;;;54.00;;
11835;SDS011;5977;51.972;7.640;2022-09-09T09:07:03;161.47;;;54.20;;
11835;SDS011;5977;51.972;7.640;2022-09-09T09:09:42;161.07;;;54.03;;
11835;SDS011;5977;51.972;7.640;2022-09-09T09:12:18;160.90;;;53.53;;
11835;SDS011;5977;51.972;7.640;2022-09-09T09:14:50;161.67;;;54.50;;
11835;SDS011;5977;51.972;7.640;2022-09-09T09:17:19;161.83;;;54.67;;
11835;SDS011;5977;51.972;7.640;2022-09-09T09:19:48;161.90;;;54.93;;
11835;SDS011;5977;51.972;7.640;2022-09-09T09:22:18;161.00;;;54.43;;
11835;SDS011;5977;51.972;7.640;2022-09-09T09:24:52;161.13;;;54.33;;
11835;SDS011;5977;51.972;7.640;2022-09-09T09:27:30;161.37;;;54.83;;
11835;SDS011;5977;51.972;7.640;2022-09-09T09:30:12;161.20;;;54.40;;
11835;SDS011;5977;51.972;7.640;2022-09-09T09:32:55;162.10;;;55.03;;
11835;SDS011;5977;51.972;7.640;2022-09-09T09:35:26;161.30;;;54.87;;
11835;SDS011;5977;51.972;7.640;2022-09-09T09:37:54;161.20;;;54.50;;
11835;SDS011;5977;51.972;7.640;2022-09-09T09:40:48;160.57;;;54.27;;
11835;SDS011;5977;51.972;7.640;2022-09-09T09:43:18;161.73;;;55.07;;
11835;SDS011;5977;51.972;7.640;2022-09-09T09:45:50;161.97;;;55.60;;
11835;SDS011;5977;51.972;7.640;2022-09-09T09:48:38;160.70;;;55.10;;
11835;SDS011;5977;51.972;7.640;2022-09-09T09:51:08;161.70;;;55.60;;
11835;SDS011;5977;51.972;7.640;2022-09-09T09:53:42;161.20;;;55.57;;
11835;SDS011;5977;51.972;7.640;2022-09-09T09:56:12;161.73;;;55.97;;
11835;SDS011;5977;51.972;7.640;2022-09-09T09:58:48;160.93;;;55.33;;
11835;SDS011;5977;51.972;7.640;2022-09-09T10:01:23;161.73;;;55.93;;
11835;SDS011;5977;51.972;7.640;2022-09-09T10:03:53;161.43;;;55.83;;
11835;SDS011;5977;51.972;7.640;2022-09-09T10:06:31;160.57;;;54.73;;
11835;SDS011;5977;51.972;7.640;2022-09-09T10:09:00;160.77;;;54.83;;
11835;SDS011;5977;51.972;7.640;2022-09-09T10:11:33;160.43;;;54.60;;
11835;SDS011;5977;51.972;7.640;2022-09-09T10:14:14;161.27;;;55.27;;
11835;SDS011;5977;51.972;7.640;2022-09-09T10:16:51;161.43;;;55.80;;
11835;SDS011;5977;51.972;7.640;2022-09-09T10:19:29;160.83;;;55.30;;
11835;SDS011;5977;51.972;7.640;2022-09-09T10:22:07;161.63;;;56.17;;
11835;SDS011;5977;51.972;7.640;2022-09-09T10:27:45;161.27;;;56.10;;
11835;SDS011;5977;51.972;7.640;2022-09-09T10:30:31;161.40;;;56.40;;
11835;SDS011;5977;51.972;7.640;2022-09-09T10:33:12;162.20;;;57.30;;
11835;SDS011;5977;51.972;7.640;2022-09-09T10:35:50;162.80;;;56.80;;
11835;SDS011;5977;51.972;7.640;2022-09-09T10:38:27;160.97;;;55.57;;
11835;SDS011;5977;51.972;7.640;2022-09-09T10:41:06;161.47;;;55.47;;
11835;SDS011;5977;51.972;7.640;2022-09-09T10:46:40;161.17;;;55.00;;
11835;SDS011;5977;51.972;7.640;2022-09-09T10:49:19;161.50;;;54.83;;
11835;SDS011;5977;51.972;7.640;2022-09-09T10:52:01;160.73;;;54.20;;
11835;SDS011;5977;51.972;7.640;2022-09-09T10:54:40;161.37;;;54.90;;
11835;SDS011;5977;51.972;7.640;2022-09-09T10:57:24;160.83;;;54.17;;
11835;SDS011;5977;51.972;7.640;2022-09-09T10:59:58;160.17;;;54.10;;
11835;SDS011;5977;51.972;7.640;2022-09-09T11:02:31;160.70;;;54.43;;
11835;SDS011;5977;51.972;7.640;2022-09-09T11:09:23;160.80;;;53.97;;
11835;SDS011;5977;51.972;7.640;2022-09-09T11:11:54;160.83;;;54.17;;
11835;SDS011;5977;51.972;7.640;2022-09-09T11:14:26;161.30;;;54.47;;
11835;SDS011;5977;51.972;7.640;2022-09-09T11:17:03;161.20;;;54.43;;
11835;SDS011;5977;51.972;7.640;2022-09-09T11:19:37;160.60;;;54.07;;
11835;SDS011;5977;51.972;7.640;2022-09-09T11:22:14;160.43;;;54.20;;
11835;SDS011;5977;51.972;7.640;2022-09-09T11:24:47;160.77;;;54.00;;
11835;SDS011;5977;51.972;7.640;2022-09-09T11:27:19;161.43;;;54.67;;
11835;SDS011;5977;51.972;7.640;2022-09-09T11:30:05;161.30;;;54.40;;
11835;SDS011;5977;51.972;7.640;2022-09-09T11:33:13;160.17;;;53.30;;
11835;SDS011;5977;51.972;7.640;2022-09-09T11:36:30;160.07;;;53.80;;
11835;SDS011;5977;51.972;7.640;2022-09-09T11:39:10;160.37;;;54.23;;
11835;SDS011;5977;51.972;7.640;2022-09-09T11:42:06;160.33;;;54.27;;
11835;SDS011;5977;51.972;7.640;2022-09-09T11:44:34;160.67;;;54.30;;
11835;SDS011;5977;51.972;7.640;2022-09-09T11:47:15;159.83;;;53.53;;
11835;SDS011;5977;51.972;7.640;2022-09-09T11:49:47;160.10;;;53.70;;
11835;SDS011;5977;51.972;7.640;2022-09-09T11:52:20;161.33;;;54.40;;
11835;SDS011;5977;51.972;7.640;2022-09-09T11:54:51;160.03;;;53.93;;
11835;SDS011;5977;51.972;7.640;2022-09-09T11:57:24;160.50;;;54.27;;
11835;SDS011;5977;51.972;7.640;2022-09-09T12:00:02;160.63;;;54.10;;
11835;SDS011;5977;51.972;7.640;2022-09-09T12:02:37;160.50;;;54.10;;
11835;SDS011;5977;51.972;7.640;2022-09-09T12:05:16;160.30;;;53.93;;
11835;SDS011;5977;51.972;7.640;2022-09-09T12:07:47;160.90;;;54.67;;
11835;SDS011;5977;51.972;7.640;2022-09-09T12:10:22;160.27;;;53.97;;
11835;SDS011;5977;51.972;7.640;2022-09-09T12:12:55;161.33;;;54.83;;
11835;SDS011;5977;51.972;7.640;2022-09-09T12:15:35;161.23;;;54.27;;
11835;SDS011;5977;51.972;7.640;2022-09-09T12:18:15;160.37;;;53.73;;
11835;SDS011;5977;51.972;7.640;2022-09-09T12:20:52;161.00;;;54.37;;
11835;SDS011;5977;51.972;7.640;2022-09-09T12:23:30;160.43;;;54.40;;
11835;SDS011;5977;51.972;7.640;2022-09-09T12:26:11;160.53;;;54.40;;
11835;SDS011;5977;51.972;7.640;2022-09-09T12:28:54;160.40;;;54.37;;
11835;SDS011;5977;51.972;7.640;2022-09-09T12:31:31;160.57;;;54.40;;
11835;SDS011;5977;51.972;7.640;2022-09-09T12:34:11;160.97;;;54.93;;
11835;SDS011;5977;51.972;7.640;2022-09-09T12:36:43;160.57;;;54.47;;
11835;SDS011;5977;51.972;7.640;2022-09-09T12:39:19;160.90;;;54.40;;
11835;SDS011;5977;51.972;7.640;2022-09-09T12:41:52;159.50;;;53.77;;
11835;SDS011;5977;51.972;7.640;2022-09-09T12:44:25;160.23;;;54.47;;
11835;SDS011;5977;51.972;7.640;2022-09-09T12:46:55;161.03;;;54.97;;
11835;SDS011;5977;51.972;7.640;2022-09-09T12:49:27;160.63;;;55.23;;
11835;SDS011;5977;51.972;7.640;2022-09-09T12:52:01;161.33;;;55.43;;
11835;SDS011;5977;51.972;7.640;2022-09-09T12:54:32;160.50;;;54.53;;
11835;SDS011;5977;51.972;7.640;2022-09-09T12:57:02;160.57;;;54.70;;
11835;SDS011;5977;51.972;7.640;2022-09-09T12:59:36;161.50;;;54.80;;
11835;SDS011;5977;51.972;7.640;2022-09-09T13:02:11;160.40;;;54.60;;
11835;SDS011;5977;51.972;7.640;2022-09-09T13:04:45;161.50;;;54.87;;
11835;SDS011;5977;51.972;7.640;2022-09-09T13:07:13;160.50;;;54.30;;
11835;SDS011;5977;51.972;7.640;2022-09-09T13:09:42;160.50;;;54.17;;
11835;SDS011;5977;51.972;7.640;2022-09-09T13:12:13;161.23;;;54.50;;
11835;SDS011;5977;51.972;7.640;2022-09-09T13:14:45;161.10;;;54.53;;
11835;SDS011;5977;51.972;7.640;2022-09-09T13:17:17;160.93;;;54.53;;
11835;SDS011;5977;51.972;7.640;2022-09-09T13:19:47;159.80;;;53.67;;
11835;SDS011;5977;51.972;7.640;2022-09-09T13:22:23;161.40;;;54.90;;
11835;SDS011;5977;51.972;7.640;2022-09-09T13:25:04;160.67;;;54.57;;
11835;SDS011;5977;51.972;7.640;2022-09-09T13:27:34;160.23;;;54.33;;
11835;SDS011;5977;51.972;7.640;2022-09-09T13:30:20;160.50;;;54.40;;
11835;SDS011;5977;51.972;7.640;2022-09-09T13:33:03;160.40;;;54.07;;
11835;SDS011;5977;51.972;7.640;2022-09-09T13:35:33;160.60;;;53.37;;
11835;SDS011;5977;51.972;7.640;2022-09-09T13:38:08;160.07;;;53.40;;
11835;SDS011;5977;51.972;7.640;2022-09-09T13:40:37;161.10;;;53.47;;
11835;SDS011;5977;51.972;7.640;2022-09-09T13:43:05;160.80;;;53.07;;
11835;SDS011;5977;51.972;7.640;2022-09-09T13:45:51;160.53;;;52.90;;
11835;SDS011;5977;51.972;7.640;2022-09-09T13:48:22;160.80;;;53.07;;
11835;SDS011;5977;51.972;7.640;2022-09-09T13:50:58;161.17;;;53.23;;
11835;SDS011;5977;51.972;7.640;2022-09-09T13:53:27;160.50;;;53.40;;
11835;SDS011;5977;51.972;7.640;2022-09-09T13:55:56;160.40;;;52.80;;
11835;SDS011;5977;51.972;7.640;2022-09-09T13:58:25;160.53;;;53.37;;
11835;SDS011;5977;51.972;7.640;2022-09-09T14:00:54;160.73;;;53.57;;
11835;SDS011;5977;51.972;7.640;2022-09-09T14:03:23;160.67;;;53.10;;
11835;SDS011;5977;51.972;7.640;2022-09-09T14:05:51;160.60;;;53.00;;
11835;SDS011;5977;51.972;7.640;2022-09-09T14:08:21;159.90;;;52.77;;
11835;SDS011;5977;51.972;7.640;2022-09-09T14:10:52;160.70;;;53.40;;
11835;SDS011;5977;51.972;7.640;2022-09-09T14:13:23;159.83;;;52.73;;
11835;SDS011;5977;51.972;7.640;2022-09-09T14:15:51;161.30;;;53.33;;
11835;SDS011;5977;51.972;7.640;2022-09-09T14:18:21;160.50;;;52.83;;
11835;SDS011;5977;51.972;7.640;2022-09-09T14:20:51;159.97;;;52.50;;
11835;SDS011;5977;51.972;7.640;2022-09-09T14:23:21;160.33;;;52.90;;
11835;SDS011;5977;51.972;7.640;2022-09-09T14:25:50;160.83;;;53.27;;
11835;SDS011;5977;51.972;7.640;2022-09-09T14:28:19;159.93;;;52.77;;
11835;SDS011;5977;51.972;7.640;2022-09-09T14:31:10;160.97;;;53.03;;
11835;SDS011;5977;51.972;7.640;2022-09-09T14:33:40;160.23;;;52.63;;
11835;SDS011;5977;51.972;7.640;2022-09-09T14:36:08;160.50;;;52.67;;
11835;SDS011;5977;51.972;7.640;2022-09-09T14:38:37;160.30;;;52.43;;
11835;SDS011;5977;51.972;7.640;2022-09-09T14:41:06;160.17;;;52.37;;
11835;SDS011;5977;51.972;7.640;2022-09-09T14:43:34;160.47;;;52.37;;
11835;SDS011;5977;51.972;7.640;2022-09-09T14:46:04;161.27;;;52.40;;
11835;SDS011;5977;51.972;7.640;2022-09-09T14:48:33;160.53;;;51.87;;
11835;SDS011;5977;51.972;7.640;2022-09-09T14:51:06;161.10;;;52.27;;
11835;SDS011;5977;51.972;7.640;2022-09-09T14:53:34;160.93;;;52.23;;
11835;SDS011;5977;51.972;7.640;2022-09-09T14:56:03;160.13;;;52.00;;
11835;SDS011;5977;51.972;7.640;2022-09-09T14:58:32;160.83;;;52.10;;
11835;SDS011;5977;51.972;7.640;2022-09-09T15:01:04;160.83;;;52.37;;
11835;SDS011;5977;51.972;7.640;2022-09-09T15:03:33;161.00;;;52.00;;
11835;SDS011;5977;51.972;7.640;2022-09-09T15:06:06;161.23;;;52.27;;
11835;SDS011;5977;51.972;7.640;2022-09-09T15:08:35;161.00;;;51.80;;
11835;SDS011;5977;51.972;7.640;2022-09-09T15:11:08;161.00;;;52.17;;